Flight Track Log - Related Links

Times and Time Zones

All times are in EST time to prevent confusion due to time zone crossing. See the AWE1902 flight status page for this flight to view local times or setup timezone preferences in your user account.

Time Position Orientation Groundspeed Altitude Reporting Facility
EST Latitude Longitude Course Direction KTS MPH feet Rate Location/Type
Thu 06:11:08 PM 35.8947 -78.7764 11° North 158 182 1,200  Level Washington Center
Thu 06:11:50 PM 35.9242 -78.7622 21° North 176 203 2,500 2,097 Climbing Washington Center
Thu 06:12:51 PM 35.9814 -78.7286 25° Northeast 246 283 4,800 2,723 Climbing Washington Center
Thu 06:13:49 PM 36.0447 -78.7028 18° North 276 318 7,900 2,975 Climbing Washington Center
Thu 06:14:00 PM 36.2010 -78.6544 19° North  Level FlightAware Approximate
Thu 06:14:50 PM 36.1247 -78.6803 13° North 281 323 10,700  Level Washington Center
Thu 06:15:00 PM 36.2849 -78.6217 15° North  Level FlightAware Approximate
Thu 06:15:51 PM 36.2192 -78.6506 14° North 325 374 12,400  Level Washington Center
Thu 06:16:00 PM 36.3701 -78.5950 11° North  Level FlightAware Approximate
Thu 06:16:51 PM 36.3308 -78.6164 14° North 370 426 15,400  Level Washington Center
Thu 06:17:49 PM 36.4294 -78.5892 13° North 385 443 17,400 2,017 Climbing Washington Center
Thu 06:18:50 PM 36.5431 -78.5494 16° North 398 458 19,400 1,918 Climbing Washington Center
Thu 06:19:51 PM 36.6611 -78.5075 16° North 421 484 21,300 1,866 Climbing Washington Center
Thu 06:20:49 PM 36.7922 -78.4319 25° Northeast 442 509 23,100 1,815 Climbing Washington Center
Thu 06:21:50 PM 36.9133 -78.3378 32° Northeast 479 551 24,900 1,623 Climbing Washington Center
Thu 06:22:51 PM 37.0194 -78.2506 33° Northeast 491 565 26,400 1,613 Climbing Washington Center
Thu 06:23:49 PM 37.1533 -78.1403 33° Northeast 519 597 28,100 1,322 Climbing Washington Center
Thu 06:24:49 PM 37.2808 -78.0350 33° Northeast 519 597 29,000 446 Climbing Washington Center
Thu 06:25:50 PM 37.4058 -77.9317 33° Northeast 532 612 29,000  Level Washington Center
Thu 06:26:50 PM 37.5308 -77.8256 34° Northeast 542 624 29,000  Level Washington Center
Thu 06:27:51 PM 37.6411 -77.7292 35° Northeast 542 624 29,000  Level Washington Center
Thu 06:28:51 PM 37.7642 -77.6144 36° Northeast 542 624 29,000  Level Washington Center
Thu 06:29:49 PM 37.8869 -77.5019 36° Northeast 542 624 29,000  Level Washington Center
Thu 06:30:50 PM 38.0117 -77.3867 36° Northeast 548 631 29,000  Level Washington Center
Thu 06:31:51 PM 38.1469 -77.2656 35° Northeast 548 631 29,000 -149 Level Washington Center
Thu 06:32:51 PM 38.2589 -77.1597 37° Northeast 556 640 28,700 -857 Descending Washington Center
Thu 06:33:50 PM 38.3814 -77.0483 35° Northeast 545 627 27,300 -1,311 Descending Washington Center
Thu 06:34:50 PM 38.4992 -76.9394 36° Northeast 533 613 26,100 -1,190 Descending Washington Center
Thu 06:35:51 PM 38.6150 -76.8297 36° Northeast 523 602 24,900 -1,059 Descending Washington Center
Thu 06:36:49 PM 38.7103 -76.6958 48° Northeast 513 590 24,000 -1,613 Descending Washington Center
Thu 06:37:50 PM 38.7492 -76.5286 73° East 484 557 21,700 -2,066 Descending Washington Center
Thu 06:38:51 PM 38.7922 -76.3481 73° East 477 549 19,800 -2,281 Descending Washington Center
Thu 06:39:51 PM 38.8181 -76.1992 77° East 471 542 17,100 -2,400 Descending Washington Center
Thu 06:40:51 PM 38.8500 -76.0419 75° East 458 527 15,000 -1,109 Descending Washington Center
Thu 06:41:50 PM 38.8836 -75.9011 73° East 434 499 14,900 -101 Descending Washington Center
Thu 06:42:50 PM 38.9486 -75.7839 54° Northeast 398 458 14,800 -793 Descending Washington Center
Thu 06:43:51 PM 39.0383 -75.7011 36° Northeast 393 452 13,300 -1,462 Descending Washington Center
Thu 06:44:49 PM 39.1364 -75.6719 13° North 359 413 11,900 -1,011 Descending Washington Center
Thu 06:47:01 PM 39.3333 -75.6167 12° North 299 344 10,100 -969 Descending Philadelphia TRACON
Thu 06:48:01 PM 39.4000 -75.6333 349° North 255 293 8,800 -1,500 Descending Philadelphia TRACON
Thu 06:49:01 PM 39.4667 -75.6500 349° North 271 312 7,100 -850 Descending Philadelphia TRACON
Thu 06:50:01 PM 39.4833 -75.5667 75° East 293 337 7,100  Level Philadelphia TRACON
Thu 06:50:55 PM 39.4833 -75.4667 90° East 290 334 7,100  Level Philadelphia TRACON
Thu 06:51:55 PM 39.5167 -75.3833 63° Northeast 286 329 7,100  Level Philadelphia TRACON
Thu 06:52:55 PM 39.5167 -75.2667 90° East 288 331 7,100 -50 Level Philadelphia TRACON
Thu 06:53:55 PM 39.5667 -75.2000 46° Northeast 277 319 7,000  Descending Philadelphia TRACON
Thu 06:54:55 PM 39.6167 -75.1167 52° Northeast 281 323 7,100 -350 Climbing Philadelphia TRACON
Thu 06:55:55 PM 39.6833 -75.0667 30° Northeast 267 307 6,300 -550 Descending Philadelphia TRACON
Thu 06:56:55 PM 39.7500 -75.0833 349° North 210 242 6,000 -300 Descending Philadelphia TRACON
Thu 06:57:55 PM 39.8000 -75.0833 360° North 189 217 5,700 -850 Descending Philadelphia TRACON
Thu 06:58:55 PM 39.8167 -75.0167 72° East 208 239 4,300 -800 Descending Philadelphia TRACON
Thu 06:59:55 PM 39.8333 -74.9333 75° East 197 227 4,100 -100 Descending Philadelphia TRACON
Thu 07:00:55 PM 39.8500 -74.8667 72° East 198 228 4,100  Level Philadelphia TRACON
Thu 07:01:55 PM 39.8833 -74.8833 339° North 158 182 4,100 -250 Level Philadelphia TRACON
Thu 07:02:55 PM 39.9167 -74.9167 323° Northwest 165 190 3,600 -500 Descending Philadelphia TRACON
Thu 07:03:55 PM 39.9167 -74.9833 270° West 160 184 3,100 -250 Descending Philadelphia TRACON
Thu 07:04:55 PM 39.9167 -75.0333 270° West 161 185 3,100 -450 Level Philadelphia TRACON
Thu 07:05:55 PM 39.9000 -75.1000 252° West 162 186 2,200 -850 Descending Philadelphia TRACON
Thu 07:06:55 PM 39.8833 -75.1500 247° West 136 157 1,400 -750 Descending Philadelphia TRACON
Thu 07:07:55 PM 39.8833 -75.1833 270° West 117 135 700 -700 Descending Philadelphia TRACON

Login

Don't have an account? Register now (free) for customized features, flight alerts, and more!